Skip Navigation Links Skip Navigation Links

Current Weather

Watertown Muni, Watertown, Wis.

For information only: do not use for flight planning or navigation.
Latest weather
Observation time Friday, December 3, 2021 2:55 AM CST
Local time Friday, December 3, 2021 3:25 AM CST
Flight conditions Marginal Visual Meteorological Conditions
Winds
Wind speed calm
Visibility 4 mi.
Present weather light snow
Sky condition
Ceiling 1,000 ft. broken clouds
Cloud layer broken clouds 1,000 ft.
Cloud layer broken clouds 1,600 ft.
Cloud layer overcast 2,500 ft.
Temperature 33°F
Dewpoint 32°F
Altimeter 30.07 in.Hg
Precipitation
Precipitation last hour 0.01 in.
Precipitation last 3 hours 0.01 in.
Derived measurements
Relative humidity 96%
Wind chill 33°F
Density altitude -991 ft.
Remarks
Fully automated report.
Automated weather observing station with precipitation discriminator.
METAR KRYV 030855Z AUTO 00000KT 4SM -SN BKN010 BKN016 OVC025 01/00 A3007 RMK AO2 P0001 60001 T00070001

Settings

Location code

InnerDrive.Weather 4.0.6770.0 Release CLR 4.0.30319.42000
Copyright ©2018 Inner Drive Technology. All rights reserved. Portions Copyright ©1986-2018 David Braverman.

Find weather

Site navigation


Skip Navigation Links

Place info

Page info

PayPal - The safer, easier way to pay online!

Return home.

Copyright ©2021 Inner Drive Technology. Purveyors of fine, hand-crafted computer software. Page printed 2021-12-03T09:25:08 UTC.